Time;durP1;ratioP1;P1;durP2;ratioP2;P2;SDS_P1;SDS_P2;PMS_P1;PMS_P2;Temp;Humidity;BMP_temperature;BMP_pressure;BME280_temperature;BME280_humidity;BME280_pressure;Samples;Min_cycle;Max_cycle;Signal;HPM_P1;HPM_P2
2021/10/10 00:00:27;;;;;;;50.30;34.33;;;;;;;7.40;100.00;102703.16;5180575;28;20030;-66
2021/10/10 00:02:58;;;;;;;52.15;34.25;;;;;;;7.52;100.00;102702.63;5184010;28;20549;-66
2021/10/10 00:05:29;;;;;;;51.22;34.90;;;;;;;7.42;100.00;102706.50;5183343;28;20053;-66
2021/10/10 00:08:00;;;;;;;49.97;33.45;;;;;;;7.40;100.00;102709.19;5180804;28;20116;-66
2021/10/10 00:10:32;;;;;;;51.50;35.25;;;;;;;7.27;100.00;102701.06;5182024;28;20057;-67
2021/10/10 00:13:05;;;;;;;47.25;33.40;;;;;;;7.18;100.00;102706.63;5182794;28;20018;-66
2021/10/10 00:15:36;;;;;;;47.42;35.10;;;;;;;7.11;100.00;102706.94;5182078;28;20034;-67
2021/10/10 00:18:07;;;;;;;47.35;32.08;;;;;;;7.18;100.00;102708.38;5182217;28;20734;-66
2021/10/10 00:20:39;;;;;;;55.67;35.85;;;;;;;7.12;100.00;102706.84;5181602;28;20038;-66
2021/10/10 00:23:10;;;;;;;55.05;35.28;;;;;;;7.10;100.00;102702.63;5183032;28;20030;-67
2021/10/10 00:25:41;;;;;;;48.05;32.65;;;;;;;7.09;100.00;102699.19;5184781;28;20373;-67
2021/10/10 00:28:13;;;;;;;48.65;32.83;;;;;;;7.05;100.00;102702.84;5182911;28;20038;-67
2021/10/10 00:30:44;;;;;;;44.78;32.47;;;;;;;7.04;100.00;102706.31;5183453;28;20519;-67
2021/10/10 00:33:16;;;;;;;43.47;30.73;;;;;;;7.00;100.00;102695.16;5182672;28;20796;-66
2021/10/10 00:35:47;;;;;;;47.55;30.80;;;;;;;6.98;100.00;102696.16;5182709;28;20045;-67
2021/10/10 00:38:18;;;;;;;46.88;30.83;;;;;;;6.96;100.00;102700.56;5181773;28;20033;-66
2021/10/10 00:40:49;;;;;;;42.30;32.10;;;;;;;6.93;100.00;102693.75;5180286;28;20077;-67
2021/10/10 00:43:21;;;;;;;43.60;29.83;;;;;;;6.88;100.00;102695.66;5183088;28;20029;-66
2021/10/10 00:45:52;;;;;;;38.85;28.65;;;;;;;6.85;100.00;102685.38;5180865;28;20532;-67
2021/10/10 00:48:23;;;;;;;43.17;31.02;;;;;;;6.88;100.00;102684.41;5180423;28;20049;-67
2021/10/10 00:50:55;;;;;;;44.35;31.17;;;;;;;6.83;100.00;102677.63;5179749;28;20031;-67
2021/10/10 00:53:26;;;;;;;41.53;29.77;;;;;;;6.81;100.00;102676.81;5182374;28;20453;-67
2021/10/10 00:55:58;;;;;;;41.70;29.42;;;;;;;6.81;100.00;102673.38;5182608;28;20496;-66
2021/10/10 00:58:30;;;;;;;39.97;28.75;;;;;;;6.78;100.00;102674.38;5185640;28;20026;-67
2021/10/10 01:01:01;;;;;;;41.28;29.00;;;;;;;6.77;100.00;102667.44;5183069;28;20026;-67
2021/10/10 01:03:32;;;;;;;40.55;29.70;;;;;;;6.77;100.00;102666.59;5184575;28;20133;-66
2021/10/10 01:06:04;;;;;;;47.47;28.73;;;;;;;6.73;100.00;102670.22;5185248;28;20026;-67
2021/10/10 01:08:35;;;;;;;38.47;27.90;;;;;;;6.82;100.00;102675.94;5182219;28;20026;-67
2021/10/10 01:11:07;;;;;;;42.10;28.42;;;;;;;6.70;100.00;102678.16;5184221;28;20027;-66
2021/10/10 01:13:42;;;;;;;38.33;26.67;;;;;;;6.83;100.00;102672.41;5182399;28;20041;-66
2021/10/10 01:16:15;;;;;;;28.05;22.60;;;;;;;6.86;100.00;102679.28;5184902;28;20034;-66
2021/10/10 01:18:46;;;;;;;32.08;23.67;;;;;;;6.69;100.00;102679.06;5185173;28;20034;-66
2021/10/10 01:21:18;;;;;;;33.10;20.98;;;;;;;6.73;100.00;102683.25;5187950;28;20088;-66
2021/10/10 01:23:49;;;;;;;41.25;26.77;;;;;;;6.61;100.00;102673.31;5188706;28;20022;-67
2021/10/10 01:26:21;;;;;;;54.70;30.50;;;;;;;6.54;100.00;102680.50;5187458;28;20049;-67
2021/10/10 01:28:52;;;;;;;43.28;27.75;;;;;;;6.51;100.00;102681.47;5183928;28;20033;-66
2021/10/10 01:31:24;;;;;;;44.28;26.92;;;;;;;6.50;100.00;102682.38;5185147;28;20034;-67
2021/10/10 01:33:55;;;;;;;43.67;29.02;;;;;;;6.45;100.00;102680.88;5186711;28;20033;-66
2021/10/10 01:36:26;;;;;;;41.17;27.38;;;;;;;6.41;100.00;102684.50;5187597;28;20030;-66
2021/10/10 01:38:58;;;;;;;43.83;27.98;;;;;;;6.36;100.00;102682.06;5186350;28;20114;-67
2021/10/10 01:41:29;;;;;;;36.75;25.75;;;;;;;6.32;100.00;102673.50;5186360;28;20030;-67
2021/10/10 01:44:00;;;;;;;38.08;25.92;;;;;;;6.32;100.00;102681.31;5188242;28;20058;-67
2021/10/10 01:46:31;;;;;;;36.13;24.95;;;;;;;6.32;100.00;102667.44;5187681;28;20121;-66
2021/10/10 01:49:03;;;;;;;33.47;24.00;;;;;;;6.30;100.00;102667.53;5183795;28;20018;-67
2021/10/10 01:51:35;;;;;;;31.77;23.30;;;;;;;6.28;100.00;102664.13;5187742;28;20022;-67
2021/10/10 01:54:06;;;;;;;32.97;22.93;;;;;;;6.25;100.00;102659.06;5186384;28;20026;-66
2021/10/10 01:56:38;;;;;;;33.25;24.45;;;;;;;6.28;100.00;102663.28;5186856;28;20296;-67
2021/10/10 01:59:09;;;;;;;30.83;22.92;;;;;;;6.25;100.00;102656.44;5186229;28;20042;-67
2021/10/10 02:01:41;;;;;;;28.88;23.88;;;;;;;6.21;100.00;102662.69;5186390;28;20040;-66
2021/10/10 02:04:12;;;;;;;29.30;23.55;;;;;;;6.27;100.00;102662.44;5190164;28;20102;-66
2021/10/10 02:06:43;;;;;;;28.55;22.92;;;;;;;6.27;100.00;102656.38;5187908;28;20555;-66
2021/10/10 02:09:14;;;;;;;50.85;23.88;;;;;;;6.21;100.00;102660.06;5187904;28;20560;-67
2021/10/10 02:11:46;;;;;;;37.30;24.25;;;;;;;6.18;100.00;102652.38;5188045;28;20035;-66
2021/10/10 02:14:17;;;;;;;33.60;23.48;;;;;;;6.19;100.00;102661.03;5188071;28;20066;-66
2021/10/10 02:16:48;;;;;;;29.83;23.52;;;;;;;6.18;100.00;102656.75;5185119;28;20045;-67
2021/10/10 02:19:20;;;;;;;28.88;23.15;;;;;;;6.14;100.00;102652.53;5189147;28;20497;-66
2021/10/10 02:21:51;;;;;;;28.20;23.25;;;;;;;6.17;100.00;102653.25;5188244;28;20021;-66
2021/10/10 02:24:23;;;;;;;28.83;21.83;;;;;;;6.15;100.00;102649.03;5187257;28;20041;-66
2021/10/10 02:26:54;;;;;;;28.67;22.20;;;;;;;6.12;100.00;102641.34;5186679;28;20033;-66
2021/10/10 02:29:26;;;;;;;25.00;19.95;;;;;;;6.10;100.00;102644.00;5183847;28;20499;-66
2021/10/10 02:31:58;;;;;;;25.58;20.02;;;;;;;6.07;100.00;102636.31;5185611;28;20041;-66
2021/10/10 02:34:29;;;;;;;25.27;21.33;;;;;;;6.05;100.00;102640.72;5186525;28;20023;-67
2021/10/10 02:37:00;;;;;;;22.55;19.38;;;;;;;6.17;100.00;102637.66;5187617;28;20448;-66
2021/10/10 02:39:32;;;;;;;23.92;20.13;;;;;;;6.15;100.00;102641.22;5188851;28;20412;-66
2021/10/10 02:42:04;;;;;;;23.70;19.73;;;;;;;6.08;100.00;102633.63;5185802;28;20018;-67
2021/10/10 02:44:36;;;;;;;20.75;18.60;;;;;;;5.97;100.00;102638.38;5186698;28;20064;-66
2021/10/10 02:47:07;;;;;;;21.92;18.35;;;;;;;5.94;100.00;102628.09;5188200;28;20062;-66
2021/10/10 02:49:38;;;;;;;22.15;19.80;;;;;;;5.96;100.00;102636.69;5183438;28;20039;-67
2021/10/10 02:52:10;;;;;;;22.35;18.95;;;;;;;5.93;100.00;102628.16;5186066;28;20056;-67
2021/10/10 02:54:41;;;;;;;22.90;19.45;;;;;;;5.93;100.00;102630.75;5184225;28;20517;-66
2021/10/10 02:57:12;;;;;;;23.63;20.08;;;;;;;5.90;100.00;102623.03;5184819;28;20500;-66
2021/10/10 02:59:44;;;;;;;23.50;21.00;;;;;;;5.88;100.00;102624.84;5179642;28;20515;-67
2021/10/10 03:02:16;;;;;;;24.02;21.10;;;;;;;5.87;100.00;102629.19;5181872;28;20496;-67
2021/10/10 03:04:47;;;;;;;49.13;23.25;;;;;;;5.88;100.00;102625.69;5183939;28;20018;-66
2021/10/10 03:07:18;;;;;;;30.10;24.15;;;;;;;5.88;100.00;102624.84;5180621;28;20055;-66
2021/10/10 03:09:49;;;;;;;28.08;22.08;;;;;;;5.88;100.00;102623.09;5182274;28;20053;-67
2021/10/10 03:12:21;;;;;;;29.13;22.80;;;;;;;5.86;100.00;102622.28;5181354;28;20081;-66
2021/10/10 03:14:52;;;;;;;25.98;22.35;;;;;;;5.84;100.00;102616.31;5180773;28;20042;-68
2021/10/10 03:17:23;;;;;;;27.63;22.83;;;;;;;5.84;100.00;102622.38;5181743;28;20023;-69
2021/10/10 03:19:54;;;;;;;29.48;22.38;;;;;;;5.84;100.00;102630.16;5181386;28;20026;-66
2021/10/10 03:22:26;;;;;;;27.55;23.35;;;;;;;5.91;100.00;102617.78;5184570;28;20034;-67
2021/10/10 03:24:57;;;;;;;25.15;22.30;;;;;;;5.94;100.00;102622.03;5181368;28;20410;-66
2021/10/10 03:27:28;;;;;;;28.20;22.20;;;;;;;5.86;100.00;102615.34;5183798;28;20045;-67
2021/10/10 03:30:00;;;;;;;27.95;23.85;;;;;;;5.79;100.00;102615.63;5185539;28;20030;-67
2021/10/10 03:32:31;;;;;;;27.38;22.20;;;;;;;5.81;100.00;102616.41;5184969;28;20054;-66
2021/10/10 03:35:04;;;;;;;27.08;22.58;;;;;;;5.84;100.00;102616.31;5182634;28;20568;-67
2021/10/10 03:37:35;;;;;;;26.75;22.35;;;;;;;5.83;100.00;102623.28;5179772;28;20140;-67
2021/10/10 03:40:10;;;;;;;29.77;22.98;;;;;;;5.83;100.00;102622.41;5180088;28;20113;-67
2021/10/10 03:42:41;;;;;;;34.08;23.73;;;;;;;5.74;100.00;102618.38;5181357;28;20038;-66
2021/10/10 03:45:13;;;;;;;33.58;22.65;;;;;;;5.80;100.00;102630.34;5182155;28;20037;-66
2021/10/10 03:47:44;;;;;;;25.63;21.17;;;;;;;5.85;100.00;102624.06;5182685;28;20030;-67
2021/10/10 03:50:15;;;;;;;31.05;21.08;;;;;;;5.87;100.00;102623.97;5181869;28;20041;-66
2021/10/10 03:52:47;;;;;;;34.08;21.08;;;;;;;5.82;100.00;102625.91;5180797;28;20037;-66
2021/10/10 03:55:28;;;;;;;55.20;21.33;;;;;;;5.84;100.00;102622.38;5182333;28;20511;-66
2021/10/10 03:58:00;;;;;;;82.10;22.60;;;;;;;5.79;100.00;102631.22;5184627;28;20033;-66
2021/10/10 04:00:33;;;;;;;67.68;21.55;;;;;;;5.79;100.00;102618.22;5177703;28;20030;-67
2021/10/10 04:03:06;;;;;;;75.80;20.88;;;;;;;5.73;100.00;102615.84;5180303;28;20027;-66
2021/10/10 04:05:40;;;;;;;65.95;20.02;;;;;;;5.70;100.00;102619.41;5178366;28;20027;-66
2021/10/10 04:08:12;;;;;;;108.13;21.80;;;;;;;5.64;100.00;102616.16;5179124;28;20575;-66
2021/10/10 04:10:43;;;;;;;104.70;22.30;;;;;;;5.61;100.00;102617.16;5181626;28;20054;-66
2021/10/10 04:13:14;;;;;;;69.03;21.70;;;;;;;5.60;100.00;102618.03;5179987;28;20066;-67
2021/10/10 04:15:45;;;;;;;51.83;21.35;;;;;;;5.64;100.00;102623.97;5184513;28;20125;-67
2021/10/10 04:18:17;;;;;;;50.63;20.48;;;;;;;5.62;100.00;102626.63;5182277;28;20096;-67
2021/10/10 04:20:48;;;;;;;61.13;20.60;;;;;;;5.63;100.00;102620.53;5180801;28;20126;-67
2021/10/10 04:23:19;;;;;;;72.68;22.00;;;;;;;5.64;100.00;102623.97;5182951;28;20026;-66
2021/10/10 04:25:51;;;;;;;36.40;20.48;;;;;;;5.73;100.00;102623.66;5180742;28;20429;-67
2021/10/10 04:28:22;;;;;;;42.08;19.70;;;;;;;5.73;100.00;102624.50;5183550;28;20640;-66
2021/10/10 04:30:53;;;;;;;49.47;19.85;;;;;;;5.63;100.00;102623.13;5177941;28;20404;-66
2021/10/10 04:33:24;;;;;;;60.58;20.50;;;;;;;5.69;100.00;102622.06;5180965;28;20041;-66
2021/10/10 04:35:56;;;;;;;45.15;19.27;;;;;;;5.63;100.00;102619.69;5183792;28;20030;-66
2021/10/10 04:38:27;;;;;;;32.35;17.50;;;;;;;5.62;100.00;102613.63;5179859;28;20066;-66
2021/10/10 04:40:58;;;;;;;66.28;19.13;;;;;;;5.57;100.00;102615.56;5183888;28;20085;-66
2021/10/10 04:43:29;;;;;;;31.98;16.23;;;;;;;5.51;100.00;102615.75;5181623;28;20026;-66
2021/10/10 04:46:01;;;;;;;65.00;18.20;;;;;;;5.48;100.00;102618.47;5183561;28;20038;-66
2021/10/10 04:48:32;;;;;;;37.33;16.05;;;;;;;5.45;100.00;102622.00;5182146;28;20121;-66
2021/10/10 04:51:03;;;;;;;45.45;17.23;;;;;;;5.41;100.00;102624.78;5179736;28;20113;-66
2021/10/10 04:53:35;;;;;;;39.78;16.42;;;;;;;5.44;100.00;102622.91;5186908;28;20046;-67
2021/10/10 04:56:06;;;;;;;23.27;15.88;;;;;;;5.43;100.00;102623.84;5184962;28;20149;-67
2021/10/10 04:58:37;;;;;;;36.30;16.10;;;;;;;5.42;100.00;102624.75;5184713;28;20404;-66
2021/10/10 05:01:08;;;;;;;21.73;15.43;;;;;;;5.45;100.00;102624.59;5184977;28;20377;-66
2021/10/10 05:03:40;;;;;;;33.55;16.70;;;;;;;5.40;100.00;102626.53;5185444;28;20570;-67
2021/10/10 05:06:11;;;;;;;45.63;17.27;;;;;;;5.39;100.00;102622.25;5185064;28;20018;-66
2021/10/10 05:08:42;;;;;;;24.65;16.17;;;;;;;5.34;100.00;102618.94;5185187;28;20034;-67
2021/10/10 05:11:13;;;;;;;39.05;16.48;;;;;;;5.30;100.00;102619.94;5185856;28;20129;-66
2021/10/10 05:13:45;;;;;;;30.38;15.73;;;;;;;5.25;100.00;102619.25;5184439;28;20129;-66
2021/10/10 05:16:16;;;;;;;36.22;16.40;;;;;;;5.23;100.00;102623.69;5185459;28;20034;-67
2021/10/10 05:18:47;;;;;;;29.25;16.25;;;;;;;5.15;100.00;102616.09;5184622;28;20030;-66
2021/10/10 05:21:19;;;;;;;22.83;15.73;;;;;;;5.19;100.00;102622.06;5183448;28;20026;-66
2021/10/10 05:23:50;;;;;;;29.27;15.88;;;;;;;5.13;100.00;102623.97;5183004;28;20061;-67
2021/10/10 05:26:21;;;;;;;33.40;17.08;;;;;;;5.15;100.00;102626.50;5189705;28;20380;-66
2021/10/10 05:28:52;;;;;;;25.73;15.05;;;;;;;5.12;100.00;102618.84;5188194;28;20514;-67
2021/10/10 05:31:24;;;;;;;32.70;16.00;;;;;;;5.08;100.00;102620.69;5184353;28;20027;-67
2021/10/10 05:33:55;;;;;;;29.67;15.82;;;;;;;5.03;100.00;102621.72;5184577;28;20420;-66
2021/10/10 05:36:27;;;;;;;29.55;15.18;;;;;;;4.97;100.00;102612.41;5183778;28;20762;-67
2021/10/10 05:38:59;;;;;;;37.45;16.30;;;;;;;5.02;100.00;102620.03;5177899;28;20055;-66
2021/10/10 05:41:30;;;;;;;41.42;15.98;;;;;;;4.99;100.00;102618.38;5185207;28;20081;-67
2021/10/10 05:44:01;;;;;;;23.98;15.45;;;;;;;4.98;100.00;102621.88;5186347;28;20027;-67
2021/10/10 05:46:32;;;;;;;16.70;15.00;;;;;;;4.98;100.00;102631.41;5189741;28;20026;-67
2021/10/10 05:49:04;;;;;;;24.80;14.88;;;;;;;4.98;100.00;102619.28;5187939;28;20034;-66
2021/10/10 05:51:35;;;;;;;28.73;15.43;;;;;;;5.01;100.00;102619.19;5184583;28;20081;-66
2021/10/10 05:54:09;;;;;;;17.20;15.13;;;;;;;5.01;100.00;102626.97;5185299;28;20034;-67
2021/10/10 05:56:41;;;;;;;17.50;15.70;;;;;;;5.03;100.00;102638.16;5187806;28;20278;-67
2021/10/10 05:59:15;;;;;;;18.05;16.15;;;;;;;5.00;100.00;102629.59;5180594;28;20288;-67
2021/10/10 06:01:46;;;;;;;19.77;17.55;;;;;;;5.02;100.00;102630.41;5183543;28;20066;-67
2021/10/10 06:04:17;;;;;;;20.25;17.77;;;;;;;5.11;100.00;102627.50;5184447;28;20046;-66
2021/10/10 06:06:49;;;;;;;28.33;18.70;;;;;;;5.13;100.00;102636.97;5185298;28;20109;-66
2021/10/10 06:09:20;;;;;;;20.98;18.75;;;;;;;5.19;100.00;102642.84;5186576;28;20138;-66
2021/10/10 06:11:51;;;;;;;26.70;18.52;;;;;;;5.12;100.00;102640.47;5185675;28;20069;-67
2021/10/10 06:14:23;;;;;;;19.63;17.52;;;;;;;5.10;100.00;102631.00;5186080;28;20082;-67
2021/10/10 06:16:55;;;;;;;18.02;16.13;;;;;;;5.13;100.00;102641.31;5185566;28;20041;-67
2021/10/10 06:19:26;;;;;;;23.92;16.52;;;;;;;5.11;100.00;102636.19;5184828;28;20408;-66
2021/10/10 06:21:58;;;;;;;27.65;17.42;;;;;;;5.13;100.00;102633.50;5186993;28;20532;-66
2021/10/10 06:24:29;;;;;;;28.83;20.20;;;;;;;5.17;100.00;102639.47;5183546;28;20022;-66
2021/10/10 06:27:02;;;;;;;29.30;20.20;;;;;;;5.21;100.00;102635.84;5185705;28;20485;-66
2021/10/10 06:29:33;;;;;;;;;;;;;;;5.53;100.00;102638.22;5187041;28;20022;-67
2021/10/10 06:32:05;;;;;;;36.87;20.50;;;;;;;5.22;100.00;102638.38;5183700;28;20229;-67
2021/10/10 06:34:36;;;;;;;30.73;21.58;;;;;;;5.25;100.00;102633.09;5186469;28;20801;-67
2021/10/10 06:37:08;;;;;;;35.95;22.33;;;;;;;5.26;100.00;102644.34;5185553;28;20061;-66
2021/10/10 06:39:39;;;;;;;47.30;21.88;;;;;;;5.24;100.00;102652.19;5186284;28;20388;-67
2021/10/10 06:42:10;;;;;;;37.38;20.45;;;;;;;5.24;100.00;102656.53;5187005;28;20023;-65
2021/10/10 06:44:42;;;;;;;25.55;19.95;;;;;;;5.34;100.00;102642.31;5186793;28;20524;-66
2021/10/10 06:47:14;;;;;;;29.80;20.23;;;;;;;5.38;100.00;102641.34;5184309;28;20106;-66
2021/10/10 06:49:45;;;;;;;26.20;19.80;;;;;;;5.34;100.00;102642.31;5180010;28;20030;-66
2021/10/10 06:52:16;;;;;;;25.70;21.38;;;;;;;5.38;100.00;102638.75;5182085;28;20029;-66
2021/10/10 06:54:48;;;;;;;23.80;20.83;;;;;;;5.40;100.00;102621.34;5181777;28;20076;-66
2021/10/10 06:57:19;;;;;;;23.83;20.95;;;;;;;5.42;100.00;102622.16;5185457;28;20023;-66
2021/10/10 06:59:50;;;;;;;22.70;19.95;;;;;;;5.43;100.00;102616.03;5185726;28;20085;-67
2021/10/10 07:02:22;;;;;;;25.27;21.48;;;;;;;5.43;100.00;102616.03;5185396;28;20023;-66
2021/10/10 07:04:54;;;;;;;22.88;20.48;;;;;;;5.45;100.00;102619.41;5183999;28;20038;-66
2021/10/10 07:07:26;;;;;;;24.63;21.00;;;;;;;5.48;100.00;102616.72;5185671;28;20030;-66
2021/10/10 07:09:57;;;;;;;24.65;20.40;;;;;;;5.51;100.00;102608.81;5182861;28;20047;-66
2021/10/10 07:12:28;;;;;;;24.40;21.65;;;;;;;5.59;100.00;102600.75;5183693;28;20034;-66
2021/10/10 07:15:00;;;;;;;24.42;21.83;;;;;;;5.68;100.00;102609.94;5183573;28;20018;-67
2021/10/10 07:17:31;;;;;;;24.33;21.83;;;;;;;5.73;100.00;102614.09;5186339;28;20034;-66
2021/10/10 07:20:26;;;;;;;25.67;22.85;;;;;;;5.82;100.00;102623.31;5182440;28;20030;-66
2021/10/10 07:23:03;;;;;;;24.10;21.50;;;;;;;5.90;100.00;102639.47;5184194;28;20033;-66
2021/10/10 07:25:34;;;;;;;24.35;21.75;;;;;;;6.00;100.00;102651.28;5182775;28;20144;-66
2021/10/10 07:28:05;;;;;;;25.08;22.48;;;;;;;6.09;100.00;102657.91;5184001;28;20116;-65
2021/10/10 07:30:37;;;;;;;24.73;22.15;;;;;;;6.16;100.00;102659.38;5185999;28;20049;-66
2021/10/10 07:33:08;;;;;;;25.30;21.95;;;;;;;6.23;100.00;102647.00;5184766;28;20030;-67
2021/10/10 07:35:39;;;;;;;25.05;22.35;;;;;;;6.29;100.00;102646.78;5183996;28;20026;-66
2021/10/10 07:38:11;;;;;;;25.88;23.17;;;;;;;6.39;100.00;102649.84;5184234;28;20467;-67
2021/10/10 07:40:43;;;;;;;26.02;23.33;;;;;;;6.45;100.00;102649.63;5181441;28;20187;-66
2021/10/10 07:43:14;;;;;;;26.50;23.85;;;;;;;6.50;100.00;102656.34;5175272;28;20026;-66
2021/10/10 07:45:46;;;;;;;25.95;23.25;;;;;;;6.57;100.00;102654.34;5175279;28;20105;-67
2021/10/10 07:48:17;;;;;;;26.83;24.13;;;;;;;6.63;100.00;102653.25;5175239;28;20658;-65
2021/10/10 07:50:48;;;;;;;24.05;21.67;;;;;;;6.71;100.00;102648.63;5173998;28;20037;-66
2021/10/10 07:53:19;;;;;;;24.35;21.92;;;;;;;6.79;100.00;102650.00;5175631;28;20108;-67
2021/10/10 07:55:51;;;;;;;26.30;23.67;;;;;;;6.89;100.00;102645.25;5174576;28;20062;-66
2021/10/10 07:58:22;;;;;;;26.60;23.80;;;;;;;6.91;100.00;102627.81;5174540;28;20026;-65
2021/10/10 08:00:53;;;;;;;25.90;23.33;;;;;;;7.07;100.00;102628.88;5175234;28;20437;-67
2021/10/10 08:03:25;;;;;;;26.48;23.85;;;;;;;7.19;100.00;102632.72;5176824;28;20027;-67
2021/10/10 08:05:56;;;;;;;26.42;23.83;;;;;;;7.25;100.00;102626.41;5177321;28;20543;-66
2021/10/10 08:08:27;;;;;;;27.38;24.52;;;;;;;7.36;100.00;102632.03;5176477;28;21206;-66
2021/10/10 08:10:59;;;;;;;29.13;26.02;;;;;;;7.46;100.00;102637.66;5176060;28;20027;-66
2021/10/10 08:13:30;;;;;;;29.25;26.33;;;;;;;7.52;100.00;102656.53;5177301;28;20489;-68
2021/10/10 08:16:01;;;;;;;31.85;28.48;;;;;;;7.60;100.00;102650.13;5179574;28;20477;-66
2021/10/10 08:18:33;;;;;;;34.45;30.85;;;;;;;7.62;100.00;102659.59;5176916;28;20122;-66
2021/10/10 08:21:04;;;;;;;34.13;30.23;;;;;;;7.70;100.00;102654.88;5175656;28;20026;-66
2021/10/10 08:23:35;;;;;;;35.17;31.45;;;;;;;7.74;100.00;102658.22;5174708;28;20034;-66
2021/10/10 08:26:06;;;;;;;36.13;31.92;;;;;;;7.77;100.00;102653.72;5174349;28;20027;-67
2021/10/10 08:28:38;;;;;;;35.53;31.48;;;;;;;7.83;100.00;102654.34;5179379;28;20436;-66
2021/10/10 08:31:09;;;;;;;36.15;30.67;;;;;;;7.89;100.00;102654.91;5179842;28;20400;-66
2021/10/10 08:33:40;;;;;;;38.53;32.55;;;;;;;7.98;100.00;102661.47;5179644;28;20027;-67
2021/10/10 08:36:12;;;;;;;35.90;32.00;;;;;;;8.04;100.00;102656.84;5178179;28;20033;-66
2021/10/10 08:38:44;;;;;;;35.20;31.15;;;;;;;8.15;100.00;102658.13;5177840;28;20061;-66
2021/10/10 08:41:20;;;;;;;37.17;33.10;;;;;;;8.21;100.00;102663.06;5178921;28;20081;-66
2021/10/10 08:43:54;;;;;;;37.17;32.30;;;;;;;8.28;100.00;102665.31;5176970;28;20026;-66
2021/10/10 08:46:29;;;;;;;38.85;33.95;;;;;;;8.40;100.00;102676.16;5178960;28;20023;-66
2021/10/10 08:49:00;;;;;;;38.45;34.15;;;;;;;8.50;100.00;102678.25;5177160;28;20050;-66
2021/10/10 08:51:34;;;;;;;44.60;36.13;;;;;;;8.55;100.00;102682.41;5178220;28;20061;-67
2021/10/10 08:54:05;;;;;;;46.65;36.97;;;;;;;8.63;100.00;102678.53;5178669;28;20531;-66
2021/10/10 08:56:39;;;;;;;40.70;35.33;;;;;;;8.77;100.00;102680.50;5176448;28;20035;-67
2021/10/10 08:59:11;;;;;;;44.83;36.65;;;;;;;8.82;100.00;102683.72;5176495;28;20077;-67
2021/10/10 09:01:42;;;;;;;48.20;38.75;;;;;;;8.92;100.00;102687.59;5178072;28;20034;-66
2021/10/10 09:04:14;;;;;;;50.40;41.70;;;;;;;9.10;100.00;102695.47;5177552;28;20500;-66
2021/10/10 09:06:45;;;;;;;54.03;42.45;;;;;;;9.16;100.00;102687.31;5178396;28;20035;-66
2021/10/10 09:09:31;;;;;;;52.42;43.67;;;;;;;9.47;100.00;102687.50;5177925;28;20058;-67
2021/10/10 09:12:08;;;;;;;52.42;42.05;;;;;;;9.61;100.00;102685.94;5176408;28;20373;-66
2021/10/10 09:14:47;;;;;;;56.25;47.15;;;;;;;9.77;100.00;102693.81;5178354;28;20034;-67
2021/10/10 09:17:21;;;;;;;63.45;53.75;;;;;;;9.95;100.00;102688.47;5180226;28;20527;-67
2021/10/10 09:19:54;;;;;;;66.25;54.40;;;;;;;9.98;100.00;102696.19;5179698;28;20392;-67
2021/10/10 09:22:26;;;;;;;;;;;;;;;10.24;100.00;102691.34;5178799;28;20045;-66
2021/10/10 09:25:09;;;;;;;61.38;50.33;;;;;;;10.21;100.00;102688.88;5177489;28;19910;-67
2021/10/10 09:27:40;;;;;;;61.53;52.53;;;;;;;10.21;100.00;102686.25;5177283;28;20039;-66
2021/10/10 09:30:12;;;;;;;67.80;54.92;;;;;;;10.28;100.00;102687.66;5177754;28;20096;-68
2021/10/10 09:32:44;;;;;;;67.00;53.85;;;;;;;10.30;100.00;102688.41;5177482;28;20065;-67
2021/10/10 09:35:34;;;;;;;63.87;54.13;;;;;;;10.55;100.00;102690.53;5178526;28;20374;-67
2021/10/10 09:38:23;;;;;;;63.38;52.30;;;;;;;10.65;100.00;102678.63;5176812;28;20292;-66
2021/10/10 09:43:59;;;;;;;65.90;54.22;;;;;;;10.88;100.00;102689.59;5177876;28;20058;-67
2021/10/10 09:46:31;;;;;;;67.20;52.90;;;;;;;10.96;100.00;102684.75;5178363;28;20038;-66
2021/10/10 09:49:28;;;;;;;64.13;52.75;;;;;;;11.16;100.00;102688.84;5176924;28;20497;-67
2021/10/10 09:52:08;;;;;;;55.97;48.33;;;;;;;11.21;100.00;102678.91;5177995;28;20056;-66
2021/10/10 09:54:58;;;;;;;61.35;50.00;;;;;;;11.41;100.00;102668.13;5177495;28;20035;-66
2021/10/10 09:57:32;;;;;;;59.08;48.60;;;;;;;11.47;100.00;102671.31;5178980;28;20171;-66
2021/10/10 10:00:17;;;;;;;55.17;48.17;;;;;;;11.61;100.00;102671.34;5178255;28;20031;-66
2021/10/10 10:02:50;;;;;;;55.35;45.70;;;;;;;11.58;100.00;102669.72;5179409;28;20504;-68
2021/10/10 10:05:24;;;;;;;57.30;47.63;;;;;;;11.61;100.00;102674.78;5181318;28;20117;-67
2021/10/10 10:07:56;;;;;;;52.72;46.03;;;;;;;11.64;100.00;102669.38;5180219;28;20105;-66
2021/10/10 10:10:30;;;;;;;55.63;45.45;;;;;;;11.62;100.00;102667.75;5179090;28;20557;-67
2021/10/10 10:13:03;;;;;;;53.97;45.58;;;;;;;11.68;100.00;102665.63;5178772;28;20030;-67
2021/10/10 10:15:35;;;;;;;50.13;40.97;;;;;;;11.72;100.00;102660.19;5182296;28;20045;-66
2021/10/10 10:18:07;;;;;;;52.55;43.50;;;;;;;11.80;100.00;102650.91;5178716;28;20049;-66
2021/10/10 10:20:39;;;;;;;53.80;44.08;;;;;;;11.87;100.00;102641.75;5180768;28;20030;-67
2021/10/10 10:23:11;;;;;;;48.78;42.13;;;;;;;12.02;100.00;102636.47;5185058;28;20034;-67
2021/10/10 10:25:42;;;;;;;49.13;43.42;;;;;;;12.13;100.00;102639.28;5182595;28;20400;-66
2021/10/10 10:28:14;;;;;;;49.08;42.50;;;;;;;12.27;100.00;102643.66;5185340;28;20038;-67
2021/10/10 10:30:46;;;;;;;48.28;42.22;;;;;;;12.43;100.00;102644.38;5183970;28;20026;-67
2021/10/10 10:33:18;;;;;;;44.70;39.90;;;;;;;12.50;100.00;102650.94;5186927;28;20030;-68
2021/10/10 10:35:49;;;;;;;48.72;41.95;;;;;;;12.66;100.00;102650.78;5186161;28;20027;-67
2021/10/10 10:38:48;;;;;;;45.03;38.03;;;;;;;12.83;100.00;102668.94;5186376;28;20035;-67
2021/10/10 10:41:50;;;;;;;45.33;37.80;;;;;;;13.05;100.00;102678.88;5187490;28;20034;-67
2021/10/10 10:44:45;;;;;;;46.75;39.72;;;;;;;13.18;100.00;102680.69;5181312;28;20042;-68
2021/10/10 10:47:18;;;;;;;46.42;41.33;;;;;;;13.18;100.00;102680.69;5184959;28;20473;-66
2021/10/10 10:52:25;;;;;;;46.92;38.63;;;;;;;13.31;100.00;102650.88;5185542;28;20306;-67
2021/10/10 10:55:18;;;;;;;42.20;37.65;;;;;;;13.35;100.00;102652.34;5182448;28;20588;-67
2021/10/10 10:58:00;;;;;;;43.05;37.47;;;;;;;13.57;100.00;102672.78;5186700;28;20053;-67
2021/10/10 11:00:34;;;;;;;43.53;35.22;;;;;;;13.56;100.00;102671.13;5182862;28;20022;-67
2021/10/10 11:03:12;;;;;;;40.33;33.13;;;;;;;13.73;100.00;102671.75;5183056;28;20026;-67
2021/10/10 11:05:49;;;;;;;38.70;33.88;;;;;;;13.82;100.00;102671.94;5182675;28;20046;-68
2021/10/10 11:08:26;;;;;;;36.45;32.35;;;;;;;13.98;100.00;102670.84;5179265;28;20027;-67
2021/10/10 11:11:07;;;;;;;35.25;30.45;;;;;;;14.04;100.00;102678.34;5259247;28;20405;-68
2021/10/10 11:13:49;;;;;;;39.00;29.98;;;;;;;14.12;100.00;102674.22;5249610;28;20240;-68
2021/10/10 11:16:26;;;;;;;34.47;30.20;;;;;;;14.31;100.00;102681.66;5247316;28;20025;-67
2021/10/10 11:19:03;;;;;;;33.38;29.38;;;;;;;14.31;100.00;102668.47;5248040;28;20479;-68
2021/10/10 11:21:44;;;;;;;34.97;29.02;;;;;;;14.32;100.00;102667.53;5247686;28;20380;-68
2021/10/10 11:24:21;;;;;;;34.08;28.95;;;;;;;14.48;100.00;102669.91;5249439;28;20025;-68
2021/10/10 11:26:53;;;;;;;32.13;28.67;;;;;;;14.53;100.00;102666.97;5247876;28;20112;-68
2021/10/10 11:29:26;;;;;;;34.65;29.00;;;;;;;14.62;100.00;102663.66;5249245;28;20021;-68
2021/10/10 11:32:01;;;;;;;32.35;28.50;;;;;;;14.72;100.00;102662.03;5250619;28;20025;-68
2021/10/10 11:34:32;;;;;;;142.18;34.72;;;;;;;14.88;100.00;102661.72;5247030;28;20040;-68
2021/10/10 11:37:12;;;;;;;30.33;26.80;;;;;;;14.96;100.00;102647.97;5246315;28;20021;-69
2021/10/10 11:39:43;;;;;;;30.88;27.02;;;;;;;14.82;100.00;102638.47;5245928;28;20029;-68